Time;durP1;ratioP1;P1;durP2;ratioP2;P2;SDS_P1;SDS_P2;PMS_P1;PMS_P2;Temp;Humidity;BMP_temperature;BMP_pressure;BME280_temperature;BME280_humidity;BME280_pressure;Samples;Min_cycle;Max_cycle;Signal;HPM_P1;HPM_P2
2023/01/30 00:01:31;;;;;;;6.20;3.30;;;;;;;-2.95;77.55;98813.52;105704;1257;62505;-25
2023/01/30 00:04:00;;;;;;;7.30;3.70;;;;;;;-2.37;76.80;98813.91;105684;1254;76055;-25
2023/01/30 00:06:30;;;;;;;5.80;3.30;;;;;;;-1.93;75.61;98816.41;105720;1254;75856;-25
2023/01/30 00:08:58;;;;;;;6.60;3.00;;;;;;;-1.88;74.70;98816.77;105728;1254;74317;-25
2023/01/30 00:11:30;;;;;;;6.20;3.50;;;;;;;-2.06;74.73;98819.25;105764;1253;61138;-25
2023/01/30 00:14:00;;;;;;;5.90;3.50;;;;;;;-2.30;75.32;98814.05;105400;1259;61902;-25
2023/01/30 00:16:31;;;;;;;6.40;4.10;;;;;;;-2.53;75.93;98811.21;105629;1254;75326;-24
2023/01/30 00:19:03;;;;;;;6.90;4.10;;;;;;;-2.72;76.38;98810.61;105502;1254;74585;-25
2023/01/30 00:21:32;;;;;;;9.40;4.30;;;;;;;-2.87;77.06;98803.42;105558;1254;74020;-25
2023/01/30 00:24:04;;;;;;;6.70;3.40;;;;;;;-2.97;77.67;98794.03;105731;1253;62744;-24
2023/01/30 00:26:32;;;;;;;5.50;3.30;;;;;;;-2.43;77.35;98790.48;105522;1254;61131;-25
2023/01/30 00:29:01;;;;;;;6.00;3.30;;;;;;;-1.81;75.56;98785.87;105594;1253;75423;-24
2023/01/30 00:31:37;;;;;;;4.50;2.90;;;;;;;-1.74;74.55;98783.77;105593;1256;75712;-25
2023/01/30 00:34:06;;;;;;;8.80;4.60;;;;;;;-1.90;74.35;98781.09;105582;1254;74179;-25
2023/01/30 00:36:35;;;;;;;5.20;3.50;;;;;;;-2.18;75.10;98778.46;105535;1254;61103;-24
2023/01/30 00:39:03;;;;;;;5.80;3.50;;;;;;;-2.44;76.07;98776.75;105591;1259;61809;-24
2023/01/30 00:47:20;;;;;;;2.30;2.10;;;;;;;-2.68;77.91;98757.96;105830;1254;73976;-24
2023/01/30 00:49:49;;;;;;;5.20;3.50;;;;;;;-2.07;76.12;98756.48;105685;1254;61850;-24
2023/01/30 00:52:17;;;;;;;8.40;4.50;;;;;;;-1.85;75.20;98756.73;105510;1254;61293;-25
2023/01/30 00:54:46;;;;;;;6.50;4.30;;;;;;;-1.98;74.87;98758.02;105502;1259;75415;-24
2023/01/30 00:57:15;;;;;;;13.90;3.50;;;;;;;-2.21;75.54;98757.45;105616;1254;75842;-25
2023/01/30 01:07:40;;;;;;;6.80;3.70;;;;;;;-2.89;78.10;98756.42;102480;1294;615192;-25
2023/01/30 01:10:15;;;;;;;6.20;3.80;;;;;;;-2.49;78.07;98750.05;104863;1265;61151;-26
2023/01/30 01:12:43;;;;;;;8.30;4.40;;;;;;;-1.81;76.59;98748.42;104820;1267;61113;-25
2023/01/30 01:15:11;;;;;;;7.40;2.90;;;;;;;-1.67;75.30;98743.69;105001;1266;73719;-26
2023/01/30 01:17:39;;;;;;;6.50;3.60;;;;;;;-1.82;75.48;98733.17;104856;1267;76005;-26
2023/01/30 01:20:07;;;;;;;3.80;2.60;;;;;;;-2.12;75.75;98728.73;103612;1263;1576167;-26
2023/01/30 01:22:35;;;;;;;11.60;5.00;;;;;;;-2.58;77.77;98720.59;104822;1272;61157;-25
2023/01/30 01:25:03;;;;;;;7.20;4.70;;;;;;;-2.65;78.06;98715.20;105216;1263;61774;-27
2023/01/30 01:27:32;;;;;;;7.60;4.60;;;;;;;-2.78;78.41;98715.61;104903;1263;71951;-27
2023/01/30 01:30:00;;;;;;;5.20;2.80;;;;;;;-2.79;79.23;98709.04;105288;1264;75629;-25
2023/01/30 01:32:29;;;;;;;6.30;4.00;;;;;;;-2.19;77.85;98709.77;105139;1269;74135;-26
2023/01/30 01:34:56;;;;;;;8.50;4.60;;;;;;;-1.95;76.99;98706.38;105113;1267;61071;-25
2023/01/30 01:37:24;;;;;;;6.40;4.40;;;;;;;-2.14;77.31;98698.86;105241;1261;61830;-25
2023/01/30 01:42:38;;;;;;;11.40;5.30;;;;;;;-2.46;77.62;98684.17;105249;1261;76286;-26
2023/01/30 01:45:14;;;;;;;13.90;7.70;;;;;;;-2.76;79.14;98677.33;105175;1260;74001;-26
2023/01/30 01:48:00;;;;;;;11.90;5.30;;;;;;;-2.85;79.65;98679.15;105211;1261;63081;-25
2023/01/30 01:50:50;;;;;;;11.40;5.10;;;;;;;-2.26;79.31;98678.20;105246;1266;61647;-26
2023/01/30 01:53:20;;;;;;;8.50;4.80;;;;;;;-1.82;77.43;98674.60;105256;1260;74537;-26
2023/01/30 01:55:50;;;;;;;9.70;4.00;;;;;;;-1.85;76.88;98669.77;105164;1267;75878;-25
2023/01/30 01:58:23;;;;;;;8.50;5.00;;;;;;;-2.12;77.21;98670.91;105069;1263;72580;-25
2023/01/30 02:00:52;;;;;;;6.60;3.90;;;;;;;-2.36;77.93;98664.61;104918;1260;61074;-26
2023/01/30 02:03:22;;;;;;;10.10;5.60;;;;;;;-2.53;78.15;98660.76;104820;1268;61716;-26
2023/01/30 02:05:52;;;;;;;7.40;4.40;;;;;;;-2.68;78.29;98653.28;104750;1269;74514;-25
2023/01/30 02:08:26;;;;;;;9.60;2.80;;;;;;;-2.76;78.81;98650.48;104765;1260;74968;-25
2023/01/30 02:11:13;;;;;;;6.70;3.40;;;;;;;-2.30;78.50;98647.90;104865;1270;71915;-26
2023/01/30 02:13:44;;;;;;;5.20;3.90;;;;;;;-1.81;77.16;98643.09;105711;1254;61052;-26
2023/01/30 02:16:13;;;;;;;10.00;4.90;;;;;;;-1.79;76.57;98638.41;105664;1260;61779;-26
2023/01/30 02:18:42;;;;;;;5.40;3.50;;;;;;;-1.97;76.63;98638.89;105718;1254;74467;-25
2023/01/30 02:21:35;;;;;;;4.30;3.60;;;;;;;-2.16;76.82;98638.72;105864;1254;75722;-26
2023/01/30 02:24:45;;;;;;;9.20;5.00;;;;;;;-2.46;77.00;98633.65;105650;1254;74141;-26
2023/01/30 02:27:16;;;;;;;9.10;4.90;;;;;;;-2.66;78.07;98628.57;105744;1253;61202;-25
2023/01/30 02:30:04;;;;;;;8.30;4.20;;;;;;;-2.63;78.56;98631.34;105707;1254;61045;-25
2023/01/30 02:33:12;;;;;;;7.00;4.50;;;;;;;-1.84;77.07;98620.74;105725;1254;74771;-26
2023/01/30 02:35:49;;;;;;;8.00;4.40;;;;;;;-1.53;75.38;98617.36;105215;1260;74804;-25
2023/01/30 02:38:52;;;;;;;6.80;4.10;;;;;;;-1.67;75.27;98616.68;105168;1267;73084;-25
2023/01/30 02:41:36;;;;;;;8.30;4.60;;;;;;;-1.90;75.41;98619.92;105264;1261;61247;-26
2023/01/30 02:44:29;;;;;;;5.60;3.10;;;;;;;-2.13;76.02;98618.06;105237;1265;61174;-25
2023/01/30 02:47:20;;;;;;;9.80;5.80;;;;;;;-2.39;76.45;98614.37;105128;1260;73773;-26
2023/01/30 02:49:59;;;;;;;5.70;3.80;;;;;;;-2.59;77.35;98606.08;105194;1265;74532;-26
2023/01/30 02:52:28;;;;;;;5.30;3.10;;;;;;;-2.27;77.36;98603.08;105152;1262;74216;-26
2023/01/30 02:54:57;;;;;;;7.50;4.50;;;;;;;-1.70;75.67;98597.41;105220;1260;61188;-26
2023/01/30 02:57:26;;;;;;;8.00;4.70;;;;;;;-1.60;74.39;98594.80;105061;1260;62005;-25
2023/01/30 02:59:58;;;;;;;6.00;4.50;;;;;;;-1.73;74.71;98589.85;105074;1260;75476;-26
2023/01/30 03:03:11;;;;;;;6.80;4.30;;;;;;;-1.95;75.74;98597.84;105210;1260;74697;-26
2023/01/30 03:05:52;;;;;;;12.70;5.30;;;;;;;-2.30;78.03;98596.06;105144;1260;72571;-26
2023/01/30 03:08:32;;;;;;;8.10;5.10;;;;;;;-2.49;78.98;98594.52;105646;1257;61153;-25
2023/01/30 03:11:06;;;;;;;9.40;4.30;;;;;;;-2.61;79.99;98590.33;105594;1253;61240;-26
2023/01/30 03:13:41;;;;;;;4.80;3.60;;;;;;;-1.97;78.94;98582.73;105568;1260;74567;-26
2023/01/30 03:16:13;;;;;;;6.60;4.50;;;;;;;-1.53;76.87;98585.33;105478;1254;74715;-26
2023/01/30 03:18:43;;;;;;;7.40;4.30;;;;;;;-1.62;76.78;98574.44;105282;1260;72362;-25
2023/01/30 03:21:15;;;;;;;9.00;5.50;;;;;;;-1.77;77.02;98570.79;105385;1257;61208;-25
2023/01/30 03:23:45;;;;;;;9.60;5.40;;;;;;;-2.01;77.65;98568.11;105520;1256;61094;-26
2023/01/30 03:26:17;;;;;;;7.30;4.30;;;;;;;-2.26;78.49;98563.44;105209;1262;74548;-26
2023/01/30 03:28:47;;;;;;;5.30;3.80;;;;;;;-2.44;79.05;98564.57;105278;1255;74694;-25
2023/01/30 03:31:16;;;;;;;10.70;5.20;;;;;;;-2.42;79.46;98561.96;105114;1261;72799;-25
2023/01/30 03:33:45;;;;;;;8.00;4.20;;;;;;;-1.75;78.91;98554.52;105410;1258;61305;-25
2023/01/30 03:36:14;;;;;;;9.70;5.20;;;;;;;-1.42;77.54;98551.01;105294;1254;61891;-26
2023/01/30 03:38:43;;;;;;;10.50;5.10;;;;;;;-1.46;76.96;98545.07;105425;1259;73488;-25
2023/01/30 03:41:12;;;;;;;8.30;5.00;;;;;;;-1.68;76.94;98543.90;105536;1254;75826;-26
2023/01/30 03:43:40;;;;;;;8.30;4.80;;;;;;;-1.97;78.05;98542.09;105614;1254;72920;-25
2023/01/30 03:46:09;;;;;;;10.90;6.50;;;;;;;-2.22;79.04;98539.80;105621;1259;61224;-25
2023/01/30 03:48:39;;;;;;;3.40;2.60;;;;;;;-2.45;79.82;98537.39;105806;1257;61782;-25
2023/01/30 03:51:11;;;;;;;9.40;5.30;;;;;;;-2.29;80.32;98538.34;105794;1257;73572;-25
2023/01/30 03:53:40;;;;;;;7.10;4.70;;;;;;;-1.71;79.15;98532.94;105574;1254;75958;-26
2023/01/30 03:56:09;;;;;;;11.80;6.70;;;;;;;-1.65;78.18;98528.27;105685;1257;73094;-26
2023/01/30 03:58:40;;;;;;;11.10;5.10;;;;;;;-1.71;78.01;98525.94;105793;1254;60950;-26
2023/01/30 04:01:23;;;;;;;6.70;4.60;;;;;;;-2.11;79.14;98519.48;105772;1254;61911;-25
2023/01/30 04:03:52;;;;;;;9.30;5.40;;;;;;;-2.26;79.37;98516.66;105748;1254;74384;-26
2023/01/30 04:06:21;;;;;;;9.60;5.90;;;;;;;-2.47;80.10;98515.20;105727;1260;75620;-25
2023/01/30 04:08:53;;;;;;;8.90;5.00;;;;;;;-2.22;80.26;98514.62;105729;1257;73984;-25
2023/01/30 04:11:33;;;;;;;;;;;;;;;-1.58;79.26;98509.11;105576;1254;61249;-26
2023/01/30 04:14:02;;;;;;;5.90;3.50;;;;;;;-1.43;78.32;98508.85;105448;1259;61182;-26
2023/01/30 04:16:32;;;;;;;7.50;5.50;;;;;;;-1.60;78.04;98506.60;105447;1254;74866;-25
2023/01/30 04:19:01;;;;;;;8.40;6.10;;;;;;;-1.88;78.56;98502.29;105552;1254;75832;-25
2023/01/30 04:21:32;;;;;;;11.80;7.40;;;;;;;-2.24;79.99;98498.73;105496;1254;73138;-25
2023/01/30 04:24:01;;;;;;;4.70;3.30;;;;;;;-2.43;80.67;98499.77;105627;1253;61069;-27
2023/01/30 04:26:30;;;;;;;9.80;5.90;;;;;;;-2.47;82.16;98499.05;105238;1260;61611;-26
2023/01/30 04:28:58;;;;;;;12.50;6.60;;;;;;;-1.78;80.65;98494.72;105456;1256;74454;-26
2023/01/30 04:31:27;;;;;;;7.80;5.80;;;;;;;-1.66;79.74;98491.20;105539;1254;75991;-25
2023/01/30 04:34:01;;;;;;;6.50;3.60;;;;;;;-1.83;79.86;98488.46;105431;1256;74098;-26
2023/01/30 04:36:29;;;;;;;10.00;6.40;;;;;;;-2.06;80.72;98486.30;105418;1254;61057;-26
2023/01/30 04:38:58;;;;;;;9.30;6.10;;;;;;;-2.23;80.62;98481.66;105522;1253;61160;-26
2023/01/30 04:41:27;;;;;;;11.40;5.60;;;;;;;-2.42;81.81;98478.14;105517;1254;74823;-26
2023/01/30 04:43:59;;;;;;;12.90;4.80;;;;;;;-1.93;81.29;98473.88;105804;1254;75583;-24
2023/01/30 04:47:01;;;;;;;9.70;5.80;;;;;;;-1.62;80.19;98466.89;105709;1254;73937;-24
2023/01/30 04:49:29;;;;;;;14.60;6.80;;;;;;;-1.74;80.07;98459.38;105663;1256;61881;-26
2023/01/30 04:59:39;;;;;;;12.10;5.50;;;;;;;-2.14;82.47;98450.23;102707;1293;599899;-25
2023/01/30 05:02:10;;;;;;;9.40;4.70;;;;;;;-1.69;81.39;98441.63;105127;1268;61173;-26
2023/01/30 05:04:39;;;;;;;12.90;6.40;;;;;;;-1.55;80.44;98440.05;105614;1258;61881;-25
2023/01/30 05:07:09;;;;;;;14.50;7.50;;;;;;;-1.62;80.19;98441.33;105619;1260;73792;-25
2023/01/30 05:09:39;;;;;;;11.10;6.60;;;;;;;-1.83;80.48;98438.63;105605;1257;74913;-26
2023/01/30 05:12:07;;;;;;;10.10;5.30;;;;;;;-2.02;80.57;98439.53;104351;1264;1652459;-26
2023/01/30 05:14:40;;;;;;;9.70;5.90;;;;;;;-2.22;81.11;98434.53;105503;1262;61784;-25
2023/01/30 05:17:10;;;;;;;10.80;6.30;;;;;;;-2.00;81.27;98435.55;105693;1254;61678;-25
2023/01/30 05:19:39;;;;;;;11.60;7.40;;;;;;;-1.43;80.16;98429.30;105695;1254;72546;-25
2023/01/30 05:22:08;;;;;;;12.50;5.50;;;;;;;-1.44;79.59;98424.08;105744;1259;75851;-25
2023/01/30 05:24:37;;;;;;;8.60;5.70;;;;;;;-1.63;80.00;98418.73;105662;1254;74374;-26
2023/01/30 05:27:05;;;;;;;21.40;11.50;;;;;;;-1.75;80.17;98416.49;105669;1255;61154;-25
2023/01/30 05:29:35;;;;;;;5.00;3.60;;;;;;;-2.10;81.27;98418.57;105258;1260;61932;-26
2023/01/30 05:32:05;;;;;;;7.80;3.80;;;;;;;-2.40;82.21;98411.91;105607;1254;74611;-26
2023/01/30 05:34:33;;;;;;;13.00;6.70;;;;;;;-2.05;82.59;98412.75;105614;1261;74990;-26
2023/01/30 05:37:02;;;;;;;11.00;6.00;;;;;;;-1.55;80.94;98413.30;105628;1255;73764;-27
2023/01/30 05:39:32;;;;;;;11.40;7.10;;;;;;;-1.45;80.10;98409.81;105602;1254;61049;-26
2023/01/30 05:42:00;;;;;;;8.50;5.10;;;;;;;-1.65;80.00;98408.28;105602;1254;61004;-26
2023/01/30 05:44:29;;;;;;;11.40;7.10;;;;;;;-1.91;80.54;98401.33;105667;1255;74534;-26
2023/01/30 05:46:57;;;;;;;19.30;11.10;;;;;;;-2.15;81.30;98399.92;105758;1259;75683;-26
2023/01/30 05:49:26;;;;;;;15.10;7.40;;;;;;;-2.33;82.46;98396.52;105602;1254;74161;-25
2023/01/30 05:51:55;;;;;;;6.00;4.20;;;;;;;-1.87;82.10;98393.49;105668;1254;61111;-25
2023/01/30 05:54:24;;;;;;;12.30;7.00;;;;;;;-1.52;80.57;98389.02;105565;1255;61164;-24
2023/01/30 05:56:52;;;;;;;9.30;6.00;;;;;;;-1.52;79.90;98385.25;105678;1258;74766;-25
2023/01/30 05:59:21;;;;;;;18.50;8.80;;;;;;;-1.84;80.36;98386.57;105649;1258;75865;-26
2023/01/30 06:01:52;;;;;;;15.70;8.20;;;;;;;-1.98;80.56;98387.83;105431;1257;74162;-25
2023/01/30 06:04:20;;;;;;;6.30;4.70;;;;;;;-2.12;81.21;98384.98;105451;1257;61046;-25
2023/01/30 06:06:49;;;;;;;8.50;5.10;;;;;;;-2.09;81.47;98392.52;105286;1261;61770;-26
2023/01/30 06:09:18;;;;;;;13.60;7.10;;;;;;;-1.69;80.85;98391.59;105475;1257;74916;-26
2023/01/30 06:11:51;;;;;;;6.80;5.60;;;;;;;-1.38;79.61;98389.42;105173;1258;75837;-25
2023/01/30 06:14:20;;;;;;;10.30;6.40;;;;;;;-1.44;79.21;98384.74;105554;1257;73031;-25
2023/01/30 06:16:49;;;;;;;8.70;5.50;;;;;;;-1.73;79.76;98382.88;105421;1257;61073;-26
2023/01/30 06:19:18;;;;;;;15.60;7.10;;;;;;;-1.91;80.33;98373.26;105571;1260;61832;-26
2023/01/30 06:21:46;;;;;;;11.40;7.10;;;;;;;-2.15;80.96;98370.84;105597;1258;74274;-25
2023/01/30 06:24:15;;;;;;;11.80;7.70;;;;;;;-1.83;81.42;98369.02;105595;1259;75803;-26
2023/01/30 06:26:44;;;;;;;18.80;8.90;;;;;;;-1.43;80.33;98368.17;105580;1257;73963;-25
2023/01/30 06:29:15;;;;;;;16.10;10.50;;;;;;;-1.36;79.30;98364.83;105554;1260;61150;-25
2023/01/30 06:31:44;;;;;;;7.10;5.00;;;;;;;-1.71;80.15;98357.10;105578;1261;61861;-25
2023/01/30 06:34:13;;;;;;;17.90;8.40;;;;;;;-1.86;80.77;98355.52;105546;1257;75170;-25
2023/01/30 06:36:42;;;;;;;9.90;6.20;;;;;;;-1.98;81.17;98355.17;105602;1257;75960;-25
2023/01/30 06:46:47;;;;;;;6.40;4.10;;;;;;;-1.37;78.86;98346.64;103075;1286;600049;-25
2023/01/30 06:49:15;;;;;;;12.70;7.00;;;;;;;-1.75;79.91;98341.11;104802;1267;61204;-26
2023/01/30 06:51:44;;;;;;;11.90;6.90;;;;;;;-1.85;80.62;98336.77;105294;1264;61151;-25
2023/01/30 06:54:13;;;;;;;16.40;8.80;;;;;;;-2.02;80.82;98335.09;105237;1260;73653;-26
2023/01/30 06:56:41;;;;;;;18.30;9.90;;;;;;;-2.09;81.92;98336.73;105349;1263;75866;-25
2023/01/30 06:59:10;;;;;;;22.80;12.50;;;;;;;-1.58;80.54;98334.45;105052;1260;73817;-25
2023/01/30 07:01:40;;;;;;;26.20;11.40;;;;;;;-1.30;79.34;98328.97;104072;1264;61202;-25
2023/01/30 07:04:09;;;;;;;18.50;9.10;;;;;;;-1.44;79.12;98322.57;105465;1261;61817;-25
2023/01/30 07:06:37;;;;;;;11.60;6.50;;;;;;;-1.57;79.39;98317.88;105172;1261;73882;-25
2023/01/30 07:09:12;;;;;;;15.30;8.20;;;;;;;-1.87;80.55;98313.39;105410;1260;76133;-26
2023/01/30 07:11:40;;;;;;;10.50;4.90;;;;;;;-1.91;80.52;98307.91;105191;1260;74194;-25
2023/01/30 07:14:09;;;;;;;17.00;9.10;;;;;;;-1.51;80.38;98305.35;105230;1260;61049;-25
2023/01/30 07:16:38;;;;;;;11.70;6.60;;;;;;;-1.16;79.03;98303.99;105452;1264;61855;-25
2023/01/30 07:19:12;;;;;;;11.20;6.50;;;;;;;-1.19;78.35;98300.55;105166;1261;74307;-25
2023/01/30 07:21:41;;;;;;;9.90;6.10;;;;;;;-1.38;78.36;98300.91;105403;1260;75803;-25
2023/01/30 07:24:10;;;;;;;9.20;5.50;;;;;;;-1.51;78.81;98302.29;105328;1262;72902;-25
2023/01/30 07:26:39;;;;;;;11.50;4.80;;;;;;;-1.73;79.60;98304.77;105477;1263;61182;-25
2023/01/30 07:29:07;;;;;;;5.20;4.00;;;;;;;-1.69;79.97;98298.80;105269;1263;61863;-25
2023/01/30 07:31:36;;;;;;;8.60;4.60;;;;;;;-1.11;78.60;98297.99;105312;1261;74593;-25
2023/01/30 07:34:05;;;;;;;12.40;7.10;;;;;;;-1.09;77.60;98297.18;105507;1260;75842;-25
2023/01/30 07:36:34;;;;;;;11.00;7.00;;;;;;;-1.15;77.66;98289.96;105335;1259;74388;-25
2023/01/30 07:39:04;;;;;;;9.90;5.50;;;;;;;-1.33;77.65;98287.54;105362;1260;61068;-25
2023/01/30 07:41:33;;;;;;;9.70;7.00;;;;;;;-1.51;78.00;98282.37;105295;1260;61187;-25
2023/01/30 07:44:01;;;;;;;13.10;7.10;;;;;;;-1.69;79.03;98278.06;105537;1260;74275;-25
2023/01/30 07:46:33;;;;;;;21.70;12.20;;;;;;;-1.49;79.35;98274.47;105463;1262;73853;-25
2023/01/30 07:49:06;;;;;;;11.40;6.80;;;;;;;-1.08;78.15;98272.27;105222;1261;73363;-25
2023/01/30 07:51:35;;;;;;;11.60;6.20;;;;;;;-1.03;77.22;98267.27;105136;1260;61075;-25
2023/01/30 07:54:04;;;;;;;12.00;7.10;;;;;;;-1.19;77.22;98262.77;105483;1263;61856;-25
2023/01/30 07:56:34;;;;;;;14.10;7.20;;;;;;;-1.40;77.72;98255.33;105412;1264;74374;-25
2023/01/30 07:59:04;;;;;;;14.50;7.90;;;;;;;-1.48;78.23;98248.88;105551;1261;74920;-25
2023/01/30 08:01:33;;;;;;;11.10;7.30;;;;;;;-1.52;78.89;98252.96;105350;1260;73221;-25
2023/01/30 08:04:02;;;;;;;14.40;6.30;;;;;;;-1.13;77.85;98248.52;105447;1260;61164;-25
2023/01/30 08:06:31;;;;;;;10.90;7.20;;;;;;;-0.95;76.98;98247.65;105596;1262;61591;-25
2023/01/30 08:08:59;;;;;;;21.30;11.50;;;;;;;-1.03;76.97;98247.84;105617;1260;74605;-25
2023/01/30 08:11:29;;;;;;;12.40;7.30;;;;;;;-1.20;77.52;98245.23;105463;1258;75724;-25
2023/01/30 08:13:58;;;;;;;11.00;7.80;;;;;;;-1.43;78.15;98241.16;105395;1260;74342;-26
2023/01/30 08:16:26;;;;;;;7.80;4.60;;;;;;;-1.39;78.25;98233.66;105498;1257;62754;-25
2023/01/30 08:18:55;;;;;;;7.80;4.10;;;;;;;-0.99;77.47;98230.83;105613;1262;61919;-26
2023/01/30 08:21:24;;;;;;;21.90;8.00;;;;;;;-0.80;76.66;98226.66;105446;1257;74593;-25
2023/01/30 08:23:52;;;;;;;10.60;7.10;;;;;;;-0.95;76.84;98215.80;105569;1262;74836;-23
2023/01/30 08:26:22;;;;;;;11.60;7.00;;;;;;;-1.12;77.01;98206.55;105289;1258;74256;-26
2023/01/30 08:28:50;;;;;;;9.90;5.90;;;;;;;-1.37;78.08;98206.32;105480;1262;61163;-24
2023/01/30 08:31:19;;;;;;;13.00;5.30;;;;;;;-1.30;78.73;98204.98;105430;1262;61084;-24
2023/01/30 08:33:48;;;;;;;8.90;5.80;;;;;;;-0.58;77.01;98203.30;105207;1257;74561;-24
2023/01/30 08:36:17;;;;;;;9.80;5.30;;;;;;;-0.27;75.49;98207.36;105314;1263;75909;-24
2023/01/30 08:38:45;;;;;;;12.70;7.30;;;;;;;-0.40;74.83;98197.98;105283;1257;74440;-24
2023/01/30 08:41:15;;;;;;;13.50;8.20;;;;;;;-0.50;75.12;98194.21;105568;1257;61223;-24
2023/01/30 08:43:43;;;;;;;11.50;7.00;;;;;;;-0.68;75.69;98194.40;105327;1262;61875;-24
2023/01/30 08:46:12;;;;;;;9.00;5.10;;;;;;;-0.91;76.66;98187.86;105142;1262;75031;-24
2023/01/30 08:48:43;;;;;;;12.20;7.50;;;;;;;-1.08;77.53;98189.33;105467;1258;75887;-24
2023/01/30 08:51:17;;;;;;;12.10;6.90;;;;;;;-0.63;77.07;98182.72;105313;1257;74142;-24
2023/01/30 08:53:46;;;;;;;12.70;7.50;;;;;;;-0.31;75.95;98177.36;105361;1263;61131;-24
2023/01/30 08:56:15;;;;;;;17.30;8.30;;;;;;;-0.38;75.92;98169.58;105328;1263;61882;-24
2023/01/30 08:58:45;;;;;;;6.20;3.80;;;;;;;-0.69;76.36;98164.45;105278;1262;74556;-24
2023/01/30 09:01:14;;;;;;;14.40;6.60;;;;;;;-0.72;76.42;98162.04;105648;1257;75782;-24
2023/01/30 09:03:43;;;;;;;6.50;4.20;;;;;;;-0.89;76.82;98160.80;105649;1257;73176;-24
2023/01/30 09:06:11;;;;;;;21.80;9.90;;;;;;;-0.72;77.01;98157.92;105695;1257;62783;-24
2023/01/30 09:08:41;;;;;;;7.40;4.90;;;;;;;-0.29;75.78;98146.42;105700;1254;61183;-24
2023/01/30 09:11:10;;;;;;;10.80;5.60;;;;;;;-0.09;74.79;98136.17;105722;1254;74192;-24
2023/01/30 09:13:42;;;;;;;6.30;3.90;;;;;;;-0.08;74.60;98131.52;105693;1254;75843;-24
2023/01/30 09:16:11;;;;;;;4.90;3.60;;;;;;;-0.24;74.69;98124.35;105717;1253;73161;-24
2023/01/30 09:18:40;;;;;;;8.30;4.50;;;;;;;-0.43;75.26;98120.69;105703;1257;61297;-24
2023/01/30 09:21:10;;;;;;;7.10;4.80;;;;;;;-0.56;76.25;98116.95;105609;1254;61061;-24
2023/01/30 09:23:38;;;;;;;7.30;4.00;;;;;;;-0.66;77.03;98110.27;105667;1253;73424;-24
2023/01/30 09:26:07;;;;;;;8.60;5.30;;;;;;;-0.25;75.74;98103.20;105711;1254;75665;-24
2023/01/30 09:28:36;;;;;;;7.10;4.80;;;;;;;-0.25;75.11;98100.68;105692;1257;74044;-24
2023/01/30 09:31:05;;;;;;;8.30;5.00;;;;;;;-0.13;74.97;98096.30;105721;1259;61144;-24
2023/01/30 09:33:34;;;;;;;14.30;7.80;;;;;;;-0.33;74.94;98093.42;105728;1258;61619;-24
2023/01/30 09:37:22;;;;;;;8.10;5.00;;;;;;;-0.63;76.68;98090.70;102618;1292;600867;-26
2023/01/30 09:39:50;;;;;;;5.50;3.70;;;;;;;-0.69;76.86;98090.45;104876;1266;61596;-25
2023/01/30 09:42:31;;;;;;;8.90;3.00;;;;;;;-0.33;76.67;98088.77;104885;1272;61880;-26
2023/01/30 09:45:09;;;;;;;4.60;3.00;;;;;;;0.22;74.93;98084.02;104836;1270;73674;-26
2023/01/30 09:47:57;;;;;;;10.30;5.60;;;;;;;0.12;74.45;98074.15;105304;1261;75891;-26
2023/01/30 09:50:51;;;;;;;9.20;5.70;;;;;;;-0.08;74.57;98069.05;104199;1257;1789921;-26
2023/01/30 09:53:32;;;;;;;13.60;8.60;;;;;;;-0.25;75.33;98066.73;105309;1264;61292;-25
2023/01/30 09:56:01;;;;;;;10.00;6.00;;;;;;;-0.35;75.75;98059.73;105368;1257;61896;-26
2023/01/30 09:58:43;;;;;;;13.30;8.30;;;;;;;-0.41;76.23;98047.77;105317;1260;73224;-26
2023/01/30 10:01:33;;;;;;;7.90;4.20;;;;;;;0.08;75.39;98046.01;105396;1259;75542;-26
2023/01/30 10:04:20;;;;;;;12.90;8.50;;;;;;;0.17;74.19;98041.26;105389;1260;74010;-24
2023/01/30 10:07:17;;;;;;;10.10;4.20;;;;;;;-0.04;74.83;98034.55;105395;1257;61095;-24
2023/01/30 10:10:01;;;;;;;7.40;5.00;;;;;;;-0.06;74.32;98022.02;105331;1257;61871;-24
2023/01/30 10:12:55;;;;;;;7.30;3.80;;;;;;;-0.18;74.63;98016.70;105285;1263;74659;-25
2023/01/30 10:15:27;;;;;;;8.70;3.40;;;;;;;-0.25;75.55;98020.30;105379;1265;75851;-26
2023/01/30 10:18:02;;;;;;;5.60;3.90;;;;;;;0.30;74.69;98023.29;105232;1265;73459;-25
2023/01/30 10:20:49;;;;;;;4.20;3.30;;;;;;;0.54;73.61;98016.50;105395;1262;61166;-26
2023/01/30 10:23:28;;;;;;;3.60;3.10;;;;;;;0.58;73.30;98004.65;105343;1263;61832;-25
2023/01/30 10:26:04;;;;;;;7.90;4.20;;;;;;;0.46;73.21;98003.81;105286;1263;74575;-26
2023/01/30 10:28:51;;;;;;;3.70;3.40;;;;;;;0.27;74.10;97990.36;105698;1258;76225;-24
2023/01/30 10:31:39;;;;;;;6.70;3.40;;;;;;;0.11;74.61;97976.57;105768;1253;74185;-25
2023/01/30 10:34:30;;;;;;;7.20;3.90;;;;;;;0.23;75.33;97980.64;105437;1259;62662;-24
2023/01/30 10:36:58;;;;;;;7.80;3.60;;;;;;;0.67;74.40;97974.77;105584;1259;61743;-25
2023/01/30 10:40:05;;;;;;;9.80;5.60;;;;;;;0.84;73.29;97973.28;105766;1259;74579;-25
2023/01/30 10:42:43;;;;;;;4.90;3.00;;;;;;;0.74;73.03;97970.13;105783;1257;75367;-25
2023/01/30 10:45:16;;;;;;;7.20;4.10;;;;;;;0.42;73.42;97963.94;105655;1265;73958;-25
2023/01/30 10:47:51;;;;;;;;;;;;;;;0.39;73.03;97955.36;105504;1255;61150;-25
2023/01/30 10:50:28;;;;;;;6.00;3.90;;;;;;;0.20;73.27;97954.02;105558;1258;61440;-25
2023/01/30 10:53:14;;;;;;;3.90;2.60;;;;;;;0.07;73.29;97940.12;105671;1260;74329;-25
2023/01/30 10:56:13;;;;;;;6.70;3.60;;;;;;;0.35;72.97;97943.84;105657;1261;75842;-25
2023/01/30 10:58:45;;;;;;;4.00;2.40;;;;;;;0.90;71.49;97927.95;105549;1257;73085;-25
2023/01/30 11:01:35;;;;;;;5.60;3.80;;;;;;;0.88;70.87;97920.43;105721;1253;61003;-25
2023/01/30 11:04:13;;;;;;;13.20;8.50;;;;;;;0.72;70.46;97905.98;105680;1261;61905;-25
2023/01/30 11:06:41;;;;;;;6.00;3.60;;;;;;;0.33;71.16;97903.63;105591;1259;74459;-25
2023/01/30 11:09:10;;;;;;;8.50;5.10;;;;;;;0.40;71.55;97896.91;105314;1259;74837;-25
2023/01/30 11:11:50;;;;;;;5.60;3.50;;;;;;;0.13;71.85;97888.08;105388;1254;74250;-25
2023/01/30 11:14:20;;;;;;;9.00;5.90;;;;;;;0.11;72.24;97878.42;105519;1259;61178;-25
2023/01/30 11:16:55;;;;;;;17.60;6.80;;;;;;;0.07;72.65;97869.40;105676;1255;61663;-25
2023/01/30 11:19:31;;;;;;;8.90;3.90;;;;;;;0.83;71.83;97857.81;105591;1261;73443;-26
2023/01/30 11:22:02;;;;;;;8.30;5.10;;;;;;;1.08;69.20;97848.45;105596;1269;74961;-25
2023/01/30 11:24:38;;;;;;;15.00;7.10;;;;;;;1.02;68.60;97828.79;105606;1254;74186;-25
2023/01/30 11:27:26;;;;;;;5.90;4.30;;;;;;;0.88;68.84;97820.13;105672;1255;61134;-25
2023/01/30 11:30:13;;;;;;;6.50;4.50;;;;;;;0.83;68.81;97821.41;105708;1267;61842;-25
2023/01/30 11:32:42;;;;;;;14.10;6.10;;;;;;;0.70;69.67;97823.90;105367;1260;74560;-25
2023/01/30 11:35:14;;;;;;;15.40;6.70;;;;;;;0.66;69.82;97816.48;105274;1254;75900;-26
2023/01/30 11:37:43;;;;;;;10.20;4.10;;;;;;;0.55;69.95;97806.05;105716;1257;74357;-25
2023/01/30 11:40:24;;;;;;;7.60;4.10;;;;;;;0.44;69.93;97801.24;105691;1254;61295;-26
2023/01/30 11:43:04;;;;;;;8.60;4.90;;;;;;;0.53;70.69;97799.35;105655;1260;61807;-25
2023/01/30 11:45:35;;;;;;;9.60;5.90;;;;;;;0.59;70.03;97799.15;105575;1258;74641;-25
2023/01/30 11:56:41;;;;;;;11.40;6.00;;;;;;;1.52;67.14;97786.06;105695;1253;61098;-25
2023/01/30 11:59:16;;;;;;;;;;;;;;;1.36;66.91;97785.67;105687;1255;61708;-25
2023/01/30 12:01:45;;;;;;;7.80;5.50;;;;;;;1.12;67.28;97781.05;105766;1260;74583;-25
2023/01/30 12:04:13;;;;;;;14.20;5.60;;;;;;;0.70;68.37;97778.48;105680;1258;76040;-25
2023/01/30 12:06:42;;;;;;;6.70;4.30;;;;;;;0.65;69.26;97782.73;105700;1254;74083;-24
2023/01/30 12:09:43;;;;;;;4.50;2.60;;;;;;;0.62;68.84;97769.93;105602;1254;61240;-25
2023/01/30 12:12:32;;;;;;;3.50;2.30;;;;;;;0.57;69.07;97775.16;105485;1260;61736;-25
2023/01/30 12:15:24;;;;;;;6.60;2.20;;;;;;;0.56;68.90;97764.13;105562;1253;73662;-25
2023/01/30 12:18:10;;;;;;;3.80;2.60;;;;;;;0.48;68.99;97769.42;105669;1261;76393;-25
2023/01/30 12:20:48;;;;;;;3.50;2.30;;;;;;;0.35;69.04;97765.06;105690;1258;74185;-25
2023/01/30 12:23:36;;;;;;;12.30;6.00;;;;;;;0.25;69.65;97766.65;105674;1254;61681;-26
2023/01/30 12:26:19;;;;;;;13.60;6.20;;;;;;;0.47;69.83;97764.02;105616;1261;61795;-25
2023/01/30 12:29:18;;;;;;;12.50;6.80;;;;;;;0.69;69.06;97771.90;105596;1254;72563;-24
2023/01/30 12:31:57;;;;;;;5.80;4.10;;;;;;;0.66;69.15;97771.40;105713;1254;75841;-24
2023/01/30 12:34:27;;;;;;;11.40;7.20;;;;;;;0.52;69.31;97773.41;105666;1259;73926;-25